Impacts METAR Board
IDs:

KRYW - Lago Vista/Allen Arp, TX, US

Updated at: 0100 UTC 01 Nov 2020
Potential Impact None Slight Moderate High
Time 31/13Z 31/14Z 31/15Z 31/16Z 31/17Z 31/18Z 31/19Z 31/20Z 31/21Z 31/22Z 31/23Z 01/00Z 01/01Z
Temp50 52 57 61 64 68 71 72 74 74 73 67 65
Dewpt38 40 41 43 43 38 39 39 40 40 41 43 41
Altim30.21 30.22 30.24 30.24 30.23 30.20 30.17 30.14 30.11 30.10 30.10 30.12 30.13
VIS10 10 10 10 10 10 10 10 10 10 10 10 10
CIG-- -- -- -- -- -- -- -- -- -- -- -- --
CoverCLRCLRCLRCLRCLRCLRCLRCLRCLRCLRCLRCLRCLR
FltCatVFRVFRVFRVFRVFRVFRVFRVFRVFRVFRVFRVFRVFR
WX--------------------------
WDir200210200170210210200200200160170160170
WSpd3 5 5 5 5 7 5 3 5 8 3 4 4
WGst-- -- -- -- -- -- -- -- -- -- -- -- --
Raw hourly METARs
KRYW 311255Z AUTO 20003KT 10SM CLR 10/03 A3021 RMK AO2 T01010031
KRYW 311355Z AUTO 21005KT 10SM CLR 11/04 A3022 RMK AO2 T01110042
KRYW 311455Z AUTO 20005KT 10SM CLR 14/05 A3024 RMK AO2 T01400052
KRYW 311555Z AUTO 17005KT 10SM CLR 16/06 A3024 RMK AO2 T01630059
KRYW 311655Z AUTO 21005KT 10SM CLR 18/06 A3023 RMK AO2 T01800061
KRYW 311755Z AUTO 21007KT 180V240 10SM CLR 20/04 A3020 RMK AO2 T02010035 10202 20097
KRYW 311855Z AUTO 20005KT 10SM CLR 21/04 A3017 RMK AO2 T02140039
KRYW 311955Z AUTO 20003KT 10SM CLR 22/04 A3014 RMK AO2 T02230038
KRYW 312055Z AUTO 20005KT 10SM CLR 24/05 A3011 RMK AO2 T02350045
KRYW 312155Z AUTO 16008KT 10SM CLR 24/04 A3010 RMK AO2 T02350044
KRYW 312255Z AUTO 17003KT 10SM CLR 23/05 A3010 RMK AO2 T02250049
KRYW 312355Z AUTO 16004KT 10SM CLR 19/06 A3012 RMK AO2 T01920059 10238 20192
KRYW 010055Z AUTO 17004KT 10SM CLR 19/05 A3013 RMK AO2 T01850050